CheckWX is a tool to help pilots better visualize weather data.  It is not intended as a substitute for an official pre-flight weather briefing.

22:31:28 UTC

EFKU METAR
Kuopio Airport
Kuopio / Siilinjärvi, Finland
Current

41 mins ago

EFKU 202150Z AUTO 22002KT CAVOK 15/13 Q1016
Observed
Jul-20 @ 21:50 UTC
Wind
  • 220° at 2 KTS
Visibility
10,000+ meters
Flight Rules
VFR
Cloud Levels
  • Clear skies
Temperature
15°C / 59°F
Dewpoint
13°C / 55°F
Humidity
88%
Altimeter
30" Hg
Pressure
1015.92 hPa
Previous

1 hour ago

EFKU 202120Z AUTO 25001KT CAVOK 14/11 Q1016
Observed
Jul-20 @ 21:20 UTC
Wind
  • 250° at 1 KTS
Visibility
10,000+ meters
Flight Rules
VFR
Cloud Levels
  • Clear skies
Temperature
14°C / 57°F
Dewpoint
11°C / 52°F
Humidity
82%
Altimeter
30" Hg
Pressure
1015.92 hPa
Previous

2 hours ago

EFKU 202050Z AUTO 25004KT CAVOK 15/12 Q1016
Observed
Jul-20 @ 20:50 UTC
Wind
  • 250° at 4 KTS
Visibility
10,000+ meters
Flight Rules
VFR
Cloud Levels
  • Clear skies
Temperature
15°C / 59°F
Dewpoint
12°C / 54°F
Humidity
82%
Altimeter
30" Hg
Pressure
1015.92 hPa